Time;durP1;ratioP1;P1;durP2;ratioP2;P2;SDS_P1;SDS_P2;PMS_P1;PMS_P2;Temp;Humidity;BMP_temperature;BMP_pressure;BME280_temperature;BME280_humidity;BME280_pressure;Samples;Min_cycle;Max_cycle;Signal;HPM_P1;HPM_P2
2024/01/22 00:00:00;;;;;;;2.97;2.58;;;;;;;;;;5018589;28;20022;-23
2024/01/22 00:02:27;;;;;;;1.73;1.25;;;;;;;;;;5018959;28;20046;-25
2024/01/22 00:04:53;;;;;;;1.80;1.52;;;;;;;;;;5018358;28;20155;-24
2024/01/22 00:07:19;;;;;;;3.35;1.15;;;;;;;;;;5018942;28;20057;-23
2024/01/22 00:09:45;;;;;;;1.45;1.23;;;;;;;;;;5018644;28;20026;-22
2024/01/22 00:12:12;;;;;;;1.30;1.20;;;;;;;;;;5018207;28;20092;-23
2024/01/22 00:14:38;;;;;;;1.48;1.38;;;;;;;;;;5018300;28;20018;-26
2024/01/22 00:17:04;;;;;;;1.77;1.52;;;;;;;;;;5018524;28;20084;-23
2024/01/22 00:19:30;;;;;;;1.45;1.35;;;;;;;;;;5018200;28;20028;-24
2024/01/22 00:21:56;;;;;;;1.25;1.20;;;;;;;;;;5018108;28;20100;-23
2024/01/22 00:24:23;;;;;;;2.05;1.75;;;;;;;;;;5018117;28;20033;-24
2024/01/22 00:26:49;;;;;;;1.70;1.33;;;;;;;;;;5018317;28;20057;-23
2024/01/22 00:29:15;;;;;;;1.58;1.48;;;;;;;;;;5018031;28;20037;-25
2024/01/22 00:31:41;;;;;;;2.15;1.30;;;;;;;;;;5017934;28;20030;-23
2024/01/22 00:34:07;;;;;;;1.73;1.63;;;;;;;;;;5017905;28;20018;-24
2024/01/22 00:36:33;;;;;;;1.63;1.52;;;;;;;;;;5018156;28;20018;-24
2024/01/22 00:38:59;;;;;;;1.45;1.35;;;;;;;;;;5018131;28;20065;-24
2024/01/22 00:41:25;;;;;;;1.55;1.45;;;;;;;;;;5018031;28;20357;-23
2024/01/22 00:43:51;;;;;;;1.73;1.40;;;;;;;;;;5017764;28;20053;-24
2024/01/22 00:46:17;;;;;;;1.42;1.33;;;;;;;;;;5018486;28;20422;-23
2024/01/22 00:48:44;;;;;;;1.50;1.40;;;;;;;;;;5017657;28;20037;-23
2024/01/22 00:51:10;;;;;;;1.75;1.30;;;;;;;;;;5018078;28;20034;-25
2024/01/22 00:53:36;;;;;;;1.35;1.00;;;;;;;;;;5016716;28;20069;-23
2024/01/22 00:56:02;;;;;;;1.58;1.48;;;;;;;;;;5017804;28;20341;-25
2024/01/22 00:58:28;;;;;;;2.15;2.05;;;;;;;;;;5018005;28;20022;-24
2024/01/22 01:00:55;;;;;;;1.40;1.30;;;;;;;;;;5017434;28;20037;-23
2024/01/22 01:03:21;;;;;;;1.80;1.55;;;;;;;;;;5017155;28;20068;-23
2024/01/22 01:05:47;;;;;;;1.77;1.58;;;;;;;;;;5017660;28;20334;-24
2024/01/22 01:08:13;;;;;;;1.33;1.23;;;;;;;;;;5017313;28;20076;-24
2024/01/22 01:10:39;;;;;;;1.67;1.58;;;;;;;;;;5017178;28;20457;-23
2024/01/22 01:13:05;;;;;;;1.60;1.50;;;;;;;;;;5017154;28;20104;-24
2024/01/22 01:15:31;;;;;;;1.75;1.65;;;;;;;;;;5017170;28;20069;-25
2024/01/22 01:17:57;;;;;;;2.05;1.40;;;;;;;;;;5017386;28;20036;-24
2024/01/22 01:20:24;;;;;;;1.85;1.73;;;;;;;;;;5017331;28;20037;-24
2024/01/22 01:22:50;;;;;;;1.50;1.40;;;;;;;;;;5017233;28;20022;-22
2024/01/22 01:25:16;;;;;;;1.98;1.20;;;;;;;;;;5017276;28;20052;-23
2024/01/22 01:27:42;;;;;;;1.40;1.30;;;;;;;;;;5017219;28;20128;-23
2024/01/22 01:30:10;;;;;;;1.80;1.67;;;;;;;;;;5017942;28;20036;-24
2024/01/22 01:32:37;;;;;;;2.00;1.60;;;;;;;;;;5016972;28;20045;-23
2024/01/22 01:35:03;;;;;;;1.95;1.75;;;;;;;;;;5017113;28;20033;-23
2024/01/22 01:37:29;;;;;;;1.55;1.40;;;;;;;;;;5016780;28;20052;-23
2024/01/22 01:39:55;;;;;;;1.48;1.38;;;;;;;;;;5016982;28;20014;-25
2024/01/22 01:42:22;;;;;;;1.55;1.40;;;;;;;;;;5016873;28;20025;-25
2024/01/22 01:44:52;;;;;;;1.35;1.25;;;;;;;;;;5016877;28;20041;-23
2024/01/22 01:47:19;;;;;;;2.78;1.67;;;;;;;;;;5017137;28;20101;-24
2024/01/22 01:49:46;;;;;;;1.50;1.40;;;;;;;;;;5017065;28;20060;-24
2024/01/22 01:52:13;;;;;;;2.33;1.70;;;;;;;;;;5016288;28;20041;-25
2024/01/22 01:54:40;;;;;;;1.58;1.48;;;;;;;;;;5016443;28;20040;-23
2024/01/22 01:57:07;;;;;;;1.60;1.40;;;;;;;;;;5016420;28;20026;-23
2024/01/22 01:59:35;;;;;;;1.42;1.33;;;;;;;;;;5016612;28;20110;-25
2024/01/22 02:02:01;;;;;;;1.73;1.50;;;;;;;;;;5017015;28;20036;-23
2024/01/22 02:04:27;;;;;;;1.50;1.35;;;;;;;;;;5015704;28;20057;-26
2024/01/22 02:06:53;;;;;;;1.33;1.20;;;;;;;;;;5016944;28;20029;-24
2024/01/22 02:09:19;;;;;;;1.42;1.33;;;;;;;;;;5016406;28;20022;-23
2024/01/22 02:11:45;;;;;;;1.40;1.30;;;;;;;;;;5016294;28;20398;-24
2024/01/22 02:14:11;;;;;;;1.98;1.40;;;;;;;;;;5015943;28;20032;-24
2024/01/22 02:16:37;;;;;;;1.48;1.23;;;;;;;;;;5016307;28;20033;-24
2024/01/22 02:19:03;;;;;;;1.40;1.30;;;;;;;;;;5016276;28;20045;-25
2024/01/22 02:21:30;;;;;;;1.27;1.17;;;;;;;;;;5015930;28;20033;-24
2024/01/22 02:23:56;;;;;;;1.27;1.17;;;;;;;;;;5015842;28;20416;-25
2024/01/22 02:26:22;;;;;;;1.45;1.15;;;;;;;;;;5015906;28;20100;-22
2024/01/22 02:28:48;;;;;;;2.03;0.95;;;;;;;;;;5015842;28;20030;-25
2024/01/22 02:31:15;;;;;;;1.40;1.23;;;;;;;;;;5015936;28;20029;-24
2024/01/22 02:33:41;;;;;;;1.38;1.27;;;;;;;;;;5015608;28;20018;-23
2024/01/22 02:36:07;;;;;;;1.98;1.30;;;;;;;;;;5015928;28;20353;-23
2024/01/22 02:38:33;;;;;;;2.17;1.50;;;;;;;;;;5015642;28;20026;-24
2024/01/22 02:40:59;;;;;;;1.20;1.10;;;;;;;;;;5015870;28;20021;-25
2024/01/22 02:43:25;;;;;;;2.55;1.58;;;;;;;;;;5015475;28;20033;-26
2024/01/22 02:45:52;;;;;;;1.20;1.08;;;;;;;;;;5016054;28;20036;-23
2024/01/22 02:48:18;;;;;;;1.10;1.10;;;;;;;;;;5015739;28;20029;-24
2024/01/22 02:50:44;;;;;;;1.27;1.15;;;;;;;;;;5014412;28;20056;-23
2024/01/22 02:53:10;;;;;;;1.65;1.50;;;;;;;;;;5015469;28;20096;-23
2024/01/22 02:55:36;;;;;;;1.10;1.10;;;;;;;;;;5015865;28;20079;-23
2024/01/22 02:58:02;;;;;;;1.52;1.42;;;;;;;;;;5015597;28;20026;-24
2024/01/22 03:00:28;;;;;;;3.05;1.40;;;;;;;;;;5015242;28;20033;-23
2024/01/22 03:02:54;;;;;;;1.92;1.73;;;;;;;;;;5015155;28;20034;-24
2024/01/22 03:05:22;;;;;;;1.42;1.33;;;;;;;;;;5015785;28;20025;-25
2024/01/22 03:07:49;;;;;;;1.30;1.20;;;;;;;;;;5015167;28;20384;-24
2024/01/22 03:10:15;;;;;;;1.67;1.42;;;;;;;;;;5015154;28;20041;-24
2024/01/22 03:12:42;;;;;;;1.55;1.15;;;;;;;;;;5015354;28;20497;-24
2024/01/22 03:15:09;;;;;;;1.40;1.25;;;;;;;;;;5014838;28;20025;-24
2024/01/22 03:17:35;;;;;;;1.20;1.10;;;;;;;;;;5014495;28;20018;-25
2024/01/22 03:20:01;;;;;;;1.75;1.65;;;;;;;;;;5015314;28;20057;-24
2024/01/22 03:22:27;;;;;;;1.00;0.90;;;;;;;;;;5014934;28;20026;-25
2024/01/22 03:24:53;;;;;;;1.38;1.27;;;;;;;;;;5015003;28;20036;-23
2024/01/22 03:27:19;;;;;;;1.17;1.05;;;;;;;;;;5014938;28;20527;-24
2024/01/22 03:29:45;;;;;;;2.05;1.45;;;;;;;;;;5014934;28;20092;-24
2024/01/22 03:32:12;;;;;;;1.40;1.30;;;;;;;;;;5014694;28;20112;-24
2024/01/22 03:34:38;;;;;;;1.50;1.30;;;;;;;;;;5014995;28;20054;-24
2024/01/22 03:37:04;;;;;;;1.77;1.30;;;;;;;;;;5015124;28;20050;-24
2024/01/22 03:39:31;;;;;;;1.70;1.20;;;;;;;;;;5015079;28;20481;-23
2024/01/22 03:41:57;;;;;;;1.27;1.17;;;;;;;;;;5014689;28;20033;-25
2024/01/22 03:44:23;;;;;;;1.08;0.95;;;;;;;;;;5014768;28;20022;-23
2024/01/22 03:46:49;;;;;;;1.25;1.10;;;;;;;;;;5014753;28;20120;-23
2024/01/22 03:49:15;;;;;;;1.55;1.17;;;;;;;;;;5014724;28;20030;-24
2024/01/22 03:51:42;;;;;;;1.00;0.90;;;;;;;;;;5014648;28;20037;-25
2024/01/22 03:54:08;;;;;;;1.10;1.05;;;;;;;;;;5014637;28;20022;-23
2024/01/22 03:56:34;;;;;;;1.95;1.75;;;;;;;;;;5014936;28;20366;-24
2024/01/22 03:59:00;;;;;;;1.55;1.13;;;;;;;;;;5014669;28;20377;-24
2024/01/22 04:01:26;;;;;;;1.33;1.20;;;;;;;;;;5014626;28;20500;-23
2024/01/22 04:03:54;;;;;;;1.35;1.25;;;;;;;;;;5014364;28;20100;-23
2024/01/22 04:06:20;;;;;;;1.20;1.10;;;;;;;;;;5014910;28;20026;-24
2024/01/22 04:08:46;;;;;;;1.10;1.05;;;;;;;;;;5014504;28;20057;-23
2024/01/22 04:11:12;;;;;;;1.25;1.10;;;;;;;;;;5014718;28;20080;-24
2024/01/22 04:13:40;;;;;;;2.58;1.65;;;;;;;;;;5014440;28;20030;-26
2024/01/22 04:16:06;;;;;;;1.05;0.90;;;;;;;;;;5014710;28;20030;-23
2024/01/22 04:18:32;;;;;;;1.15;1.05;;;;;;;;;;5014711;28;20026;-24
2024/01/22 04:20:58;;;;;;;3.33;1.55;;;;;;;;;;5014762;28;20022;-26
2024/01/22 04:23:24;;;;;;;1.90;1.30;;;;;;;;;;5014344;28;20365;-24
2024/01/22 04:25:50;;;;;;;0.73;0.73;;;;;;;;;;5014417;28;20026;-23
2024/01/22 04:28:17;;;;;;;1.40;1.27;;;;;;;;;;5016724;28;20461;-26
2024/01/22 04:30:43;;;;;;;1.25;1.20;;;;;;;;;;5018550;28;20046;-24
2024/01/22 04:33:09;;;;;;;0.95;0.95;;;;;;;;;;5018186;28;20104;-24
2024/01/22 04:35:35;;;;;;;1.75;1.50;;;;;;;;;;5017972;28;20026;-23
2024/01/22 04:38:01;;;;;;;1.45;1.20;;;;;;;;;;5018170;28;20041;-25
2024/01/22 04:40:27;;;;;;;1.40;1.10;;;;;;;;;;5018117;28;20029;-23
2024/01/22 04:42:53;;;;;;;0.95;0.90;;;;;;;;;;5018486;28;20061;-25
2024/01/22 04:45:21;;;;;;;2.50;0.90;;;;;;;;;;5017688;28;20034;-24
2024/01/22 04:47:47;;;;;;;1.10;1.00;;;;;;;;;;5017644;28;20503;-24
2024/01/22 04:50:13;;;;;;;1.35;1.00;;;;;;;;;;5017630;28;20022;-23
2024/01/22 04:52:39;;;;;;;1.10;1.00;;;;;;;;;;5017755;28;20326;-25
2024/01/22 04:55:06;;;;;;;1.00;0.88;;;;;;;;;;5017540;28;20057;-24
2024/01/22 04:57:32;;;;;;;1.00;1.00;;;;;;;;;;5016530;28;20480;-24
2024/01/22 04:59:58;;;;;;;1.42;1.00;;;;;;;;;;5017433;28;20030;-23
2024/01/22 05:02:27;;;;;;;1.58;1.00;;;;;;;;;;5017696;28;20108;-24
2024/01/22 05:05:00;;;;;;;2.03;1.23;;;;;;;;;;5017186;28;20054;-25
2024/01/22 05:07:26;;;;;;;1.10;1.10;;;;;;;;;;5017266;28;20022;-26
2024/01/22 05:09:59;;;;;;;1.38;1.27;;;;;;;;;;5017459;28;20420;-25
2024/01/22 05:12:26;;;;;;;1.33;1.23;;;;;;;;;;5016864;28;20032;-24
2024/01/22 05:14:52;;;;;;;2.33;0.88;;;;;;;;;;5017029;28;20442;-25
2024/01/22 05:17:19;;;;;;;2.05;1.02;;;;;;;;;;5016702;28;20459;-24
2024/01/22 05:19:45;;;;;;;2.05;1.23;;;;;;;;;;5017539;28;20044;-25
2024/01/22 05:22:11;;;;;;;1.10;1.05;;;;;;;;;;5016978;28;20030;-25
2024/01/22 05:24:37;;;;;;;1.13;1.02;;;;;;;;;;5017195;28;20034;-27
2024/01/22 05:27:04;;;;;;;1.20;1.10;;;;;;;;;;5016913;28;20026;-24
2024/01/22 05:29:30;;;;;;;1.52;1.13;;;;;;;;;;5016847;28;20410;-24
2024/01/22 05:31:57;;;;;;;4.90;1.65;;;;;;;;;;5016366;28;20041;-24
2024/01/22 05:34:23;;;;;;;1.23;1.00;;;;;;;;;;5016769;28;20062;-25
2024/01/22 05:36:49;;;;;;;1.30;1.13;;;;;;;;;;5016814;28;20018;-24
2024/01/22 05:39:15;;;;;;;3.22;1.02;;;;;;;;;;5015485;28;20026;-28
2024/01/22 05:41:41;;;;;;;2.08;1.02;;;;;;;;;;5016188;28;20054;-25
2024/01/22 05:44:08;;;;;;;12.27;2.08;;;;;;;;;;5016101;28;20084;-25
2024/01/22 05:46:34;;;;;;;4.13;1.30;;;;;;;;;;5016658;28;20080;-24
2024/01/22 05:49:00;;;;;;;2.65;1.20;;;;;;;;;;5016588;28;20037;-23
2024/01/22 05:51:26;;;;;;;5.43;1.30;;;;;;;;;;5015995;28;20033;-23
2024/01/22 05:53:53;;;;;;;6.38;1.27;;;;;;;;;;5016032;28;20032;-24
2024/01/22 05:56:22;;;;;;;1.25;1.00;;;;;;;;;;5015924;28;20053;-24
2024/01/22 05:58:49;;;;;;;4.15;1.23;;;;;;;;;;5015720;28;20018;-27
2024/01/22 06:03:52;;;;;;;2.03;1.27;;;;;;;;;;5111663;22;20124;-24
2024/01/22 06:06:18;;;;;;;6.78;1.20;;;;;;;;;;5016328;28;20476;-23
2024/01/22 06:08:45;;;;;;;2.78;1.23;;;;;;;;;;5015913;28;20123;-23
2024/01/22 06:11:12;;;;;;;1.88;1.20;;;;;;;;;;5015963;28;20037;-23
2024/01/22 06:13:44;;;;;;;4.05;2.83;;;;;;;;;;5015842;28;20030;-23
2024/01/22 06:16:13;;;;;;;1.40;1.25;;;;;;;;;;5015470;28;20121;-24
2024/01/22 06:18:41;;;;;;;3.92;0.95;;;;;;;;;;5015541;28;20028;-23
2024/01/22 06:21:08;;;;;;;3.10;1.10;;;;;;;;;;5015701;28;20457;-23
2024/01/22 06:23:34;;;;;;;1.83;0.98;;;;;;;;;;5015437;28;20026;-32
2024/01/22 06:26:01;;;;;;;1.20;0.90;;;;;;;;;;5015913;28;20049;-23
2024/01/22 06:28:28;;;;;;;6.22;1.35;;;;;;;;;;5016016;28;20022;-24
2024/01/22 06:30:55;;;;;;;1.67;1.02;;;;;;;;;;5015346;28;20045;-23
2024/01/22 06:33:21;;;;;;;0.82;0.82;;;;;;;;;;5015352;28;20022;-25
2024/01/22 06:35:48;;;;;;;2.60;1.20;;;;;;;;;;5015739;28;20026;-23
2024/01/22 06:38:17;;;;;;;2.15;0.90;;;;;;;;;;5015419;28;20034;-23
2024/01/22 06:40:44;;;;;;;3.47;1.17;;;;;;;;;;5015280;28;20355;-22
2024/01/22 06:43:10;;;;;;;5.22;1.20;;;;;;;;;;5015125;28;20502;-22
2024/01/22 06:45:37;;;;;;;1.15;1.02;;;;;;;;;;5015680;28;20109;-23
2024/01/22 06:48:03;;;;;;;5.07;1.08;;;;;;;;;;5015403;28;20034;-23
2024/01/22 06:50:29;;;;;;;5.65;1.23;;;;;;;;;;5015335;28;20356;-23
2024/01/22 06:52:56;;;;;;;4.13;1.60;;;;;;;;;;5013945;28;20026;-24
2024/01/22 06:55:23;;;;;;;3.85;1.08;;;;;;;;;;5015078;28;20089;-23
2024/01/22 06:57:50;;;;;;;1.23;1.02;;;;;;;;;;5014094;28;20048;-22
2024/01/22 07:00:19;;;;;;;3.47;1.10;;;;;;;;;;5015309;28;20025;-23
2024/01/22 07:02:45;;;;;;;5.43;1.65;;;;;;;;;;5014712;28;20056;-24
2024/01/22 07:05:11;;;;;;;2.70;1.10;;;;;;;;;;5015310;28;20025;-23
2024/01/22 07:07:38;;;;;;;2.00;1.13;;;;;;;;;;5015189;28;20038;-23
2024/01/22 07:10:10;;;;;;;2.30;0.95;;;;;;;;;;5014926;28;20443;-22
2024/01/22 07:12:37;;;;;;;3.03;0.88;;;;;;;;;;5014890;28;20033;-24
2024/01/22 07:15:04;;;;;;;1.42;1.15;;;;;;;;;;5014886;28;20155;-22
2024/01/22 07:17:30;;;;;;;10.93;1.58;;;;;;;;;;5013796;28;20025;-23
2024/01/22 07:19:56;;;;;;;2.13;1.30;;;;;;;;;;5015039;28;20026;-23
2024/01/22 07:22:22;;;;;;;0.75;0.75;;;;;;;;;;5014717;28;20104;-22
2024/01/22 07:24:49;;;;;;;1.27;1.20;;;;;;;;;;5014813;28;20025;-23
2024/01/22 07:27:15;;;;;;;1.23;1.02;;;;;;;;;;5014695;28;20144;-24
2024/01/22 07:29:42;;;;;;;3.85;1.20;;;;;;;;;;5013644;28;20471;-23
2024/01/22 07:32:09;;;;;;;4.00;1.23;;;;;;;;;;5014698;28;20342;-23
2024/01/22 07:34:35;;;;;;;3.22;1.52;;;;;;;;;;5014483;28;20022;-23
2024/01/22 07:37:01;;;;;;;10.10;1.83;;;;;;;;;;5013520;28;20037;-23
2024/01/22 07:39:27;;;;;;;2.15;1.20;;;;;;;;;;5014611;28;20353;-22
2024/01/22 07:41:53;;;;;;;5.88;1.15;;;;;;;;;;5014460;28;20496;-23
2024/01/22 07:44:19;;;;;;;4.00;1.10;;;;;;;;;;5014142;28;20029;-23
2024/01/22 07:46:46;;;;;;;4.50;1.08;;;;;;;;;;5014335;28;20453;-23
2024/01/22 07:49:12;;;;;;;3.60;1.00;;;;;;;;;;5013404;28;20029;-23
2024/01/22 07:51:38;;;;;;;13.13;1.20;;;;;;;;;;5014517;28;20397;-23
2024/01/22 07:54:05;;;;;;;3.20;1.20;;;;;;;;;;5014508;28;20037;-22
2024/01/22 07:56:31;;;;;;;4.90;1.60;;;;;;;;;;5014325;28;20029;-22
2024/01/22 07:58:58;;;;;;;6.15;1.75;;;;;;;;;;5014972;28;20026;-23
2024/01/22 08:01:24;;;;;;;3.15;1.52;;;;;;;;;;5014473;28;20156;-23
2024/01/22 08:03:50;;;;;;;10.65;2.33;;;;;;;;;;5017570;28;20050;-23
2024/01/22 08:06:17;;;;;;;3.53;1.45;;;;;;;;;;5018427;28;20030;-23
2024/01/22 08:08:43;;;;;;;3.80;1.40;;;;;;;;;;5018125;28;20057;-23
2024/01/22 08:11:09;;;;;;;5.78;1.10;;;;;;;;;;5018260;28;20033;-22
2024/01/22 08:13:37;;;;;;;3.97;1.20;;;;;;;;;;5018144;28;20048;-22
2024/01/22 08:16:03;;;;;;;5.72;1.35;;;;;;;;;;5016807;28;20131;-22
2024/01/22 08:18:29;;;;;;;9.07;1.42;;;;;;;;;;5017612;28;20092;-22
2024/01/22 08:20:56;;;;;;;6.75;1.52;;;;;;;;;;5018339;28;20357;-23
2024/01/22 08:23:22;;;;;;;2.53;1.30;;;;;;;;;;5017718;28;20330;-24
2024/01/22 08:25:48;;;;;;;13.60;1.35;;;;;;;;;;5017777;28;20548;-23
2024/01/22 08:28:14;;;;;;;1.90;1.10;;;;;;;;;;5017641;28;20014;-23
2024/01/22 08:30:40;;;;;;;5.80;2.50;;;;;;;;;;5017833;28;20033;-23
2024/01/22 08:33:06;;;;;;;6.13;1.33;;;;;;;;;;5017539;28;20400;-23
2024/01/22 08:35:33;;;;;;;4.13;1.33;;;;;;;;;;5017486;28;20041;-23
2024/01/22 08:37:59;;;;;;;6.50;1.85;;;;;;;;;;5017857;28;20476;-23
2024/01/22 08:40:26;;;;;;;7.30;1.55;;;;;;;;;;5017782;28;20025;-24
2024/01/22 08:42:53;;;;;;;8.02;1.05;;;;;;;;;;5016348;28;20109;-23
2024/01/22 08:45:21;;;;;;;7.63;1.63;;;;;;;;;;5017423;28;20112;-24
2024/01/22 08:47:47;;;;;;;10.50;1.90;;;;;;;;;;5017252;28;20097;-25
2024/01/22 08:50:23;;;;;;;9.23;1.75;;;;;;;;;;5017196;28;20088;-21
2024/01/22 08:52:50;;;;;;;13.38;1.73;;;;;;;;;;5017354;28;20030;-23
2024/01/22 08:55:18;;;;;;;12.25;1.77;;;;;;;;;;5017079;28;20017;-22
2024/01/22 08:57:45;;;;;;;10.38;1.60;;;;;;;;;;5017134;28;20061;-21
2024/01/22 09:00:11;;;;;;;4.20;1.30;;;;;;;;;;5017232;28;20080;-24
2024/01/22 09:02:41;;;;;;;6.35;1.65;;;;;;;;;;5016812;28;20078;-23
2024/01/22 09:05:08;;;;;;;7.22;1.33;;;;;;;;;;5017045;28;20106;-22
2024/01/22 09:07:35;;;;;;;5.70;1.55;;;;;;;;;;5017037;28;20360;-22
2024/01/22 09:10:03;;;;;;;11.30;1.85;;;;;;;;;;5017672;28;20495;-22
2024/01/22 09:12:29;;;;;;;6.85;1.55;;;;;;;;;;5016879;28;20030;-22
2024/01/22 09:14:56;;;;;;;6.90;1.67;;;;;;;;;;5016050;28;20026;-22
2024/01/22 09:17:22;;;;;;;8.48;1.33;;;;;;;;;;5017174;28;20098;-22
2024/01/22 09:19:48;;;;;;;7.63;1.80;;;;;;;;;;5017221;28;20436;-23
2024/01/22 09:22:15;;;;;;;2.08;1.08;;;;;;;;;;5016865;28;20026;-22
2024/01/22 09:24:41;;;;;;;3.15;1.15;;;;;;;;;;5016760;28;20123;-23
2024/01/22 09:27:07;;;;;;;5.32;1.10;;;;;;;;;;5017069;28;20100;-24
2024/01/22 09:29:33;;;;;;;3.30;1.15;;;;;;;;;;5017009;28;20034;-23
2024/01/22 09:32:00;;;;;;;19.73;2.53;;;;;;;;;;5016534;28;20030;-23
2024/01/22 09:34:26;;;;;;;6.13;1.42;;;;;;;;;;5016656;28;20084;-22
2024/01/22 09:36:52;;;;;;;4.82;1.50;;;;;;;;;;5016693;28;20022;-22
2024/01/22 09:39:19;;;;;;;6.68;1.40;;;;;;;;;;5016890;28;20022;-22
2024/01/22 09:41:46;;;;;;;6.22;1.50;;;;;;;;;;5015546;28;20035;-22
2024/01/22 09:44:12;;;;;;;3.78;1.65;;;;;;;;;;5016749;28;20033;-23
2024/01/22 09:46:39;;;;;;;3.90;1.95;;;;;;;;;;5016765;28;20097;-23
2024/01/22 09:49:05;;;;;;;15.90;3.90;;;;;;;;;;5017046;28;20040;-23
2024/01/22 09:51:35;;;;;;;5.53;1.27;;;;;;;;;;5016368;28;20105;-23
2024/01/22 09:54:10;;;;;;;5.53;1.48;;;;;;;;;;5016406;28;20021;-23
2024/01/22 09:56:37;;;;;;;10.05;2.60;;;;;;;;;;5016951;28;20025;-23
2024/01/22 09:59:09;;;;;;;6.50;1.63;;;;;;;;;;5016353;28;20392;-23
2024/01/22 10:01:36;;;;;;;7.28;1.45;;;;;;;;;;5016903;28;20057;-23
2024/01/22 10:04:04;;;;;;;3.53;1.25;;;;;;;;;;5015981;28;20108;-23
2024/01/22 10:06:33;;;;;;;4.93;1.63;;;;;;;;;;5016429;28;20037;-24
2024/01/22 10:08:59;;;;;;;7.88;1.73;;;;;;;;;;5016411;28;20037;-22
2024/01/22 10:11:25;;;;;;;4.47;1.60;;;;;;;;;;5016075;28;20107;-22
2024/01/22 10:13:52;;;;;;;3.38;1.33;;;;;;;;;;5016472;28;20026;-23
2024/01/22 10:16:19;;;;;;;2.45;1.30;;;;;;;;;;5016505;28;20043;-24
2024/01/22 10:19:05;;;;;;;3.47;2.25;;;;;;;;;;5015934;28;20040;-23
2024/01/22 10:21:31;;;;;;;5.32;1.70;;;;;;;;;;5015817;28;20037;-23
2024/01/22 10:23:59;;;;;;;5.53;1.55;;;;;;;;;;5015789;28;20037;-23
2024/01/22 10:26:25;;;;;;;9.85;1.65;;;;;;;;;;5015469;28;20087;-23
2024/01/22 10:28:52;;;;;;;6.38;1.88;;;;;;;;;;5014778;28;20030;-23
2024/01/22 10:31:19;;;;;;;3.80;1.60;;;;;;;;;;5015651;28;20018;-24
2024/01/22 10:33:48;;;;;;;2.90;1.60;;;;;;;;;;5015588;28;20026;-23
2024/01/22 10:36:18;;;;;;;4.95;1.90;;;;;;;;;;5015901;28;20030;-23
2024/01/22 10:38:45;;;;;;;6.85;1.70;;;;;;;;;;5015423;28;20014;-23
2024/01/22 10:41:22;;;;;;;7.95;1.33;;;;;;;;;;5015552;28;20326;-22
2024/01/22 10:43:49;;;;;;;2.38;1.30;;;;;;;;;;5015704;28;20089;-23
2024/01/22 10:46:16;;;;;;;2.75;1.33;;;;;;;;;;5015283;28;20091;-22
2024/01/22 10:48:44;;;;;;;3.95;1.55;;;;;;;;;;5015644;28;20357;-23
2024/01/22 10:51:11;;;;;;;5.68;1.98;;;;;;;;;;5015171;28;20100;-23
2024/01/22 10:53:40;;;;;;;5.70;1.52;;;;;;;;;;5015249;28;20026;-22
2024/01/22 10:56:26;;;;;;;5.32;1.80;;;;;;;;;;5015207;28;20091;-25
2024/01/22 10:58:56;;;;;;;7.45;1.58;;;;;;;;;;5015142;28;20395;-23
2024/01/22 11:01:25;;;;;;;6.00;2.30;;;;;;;;;;5015146;28;20029;-25
2024/01/22 11:03:54;;;;;;;5.85;1.60;;;;;;;;;;5014782;28;20045;-23
2024/01/22 11:06:22;;;;;;;3.60;1.40;;;;;;;;;;5015068;28;20143;-23
2024/01/22 11:08:52;;;;;;;5.90;1.38;;;;;;;;;;5015016;28;20025;-24
2024/01/22 11:11:24;;;;;;;1.38;1.23;;;;;;;;;;5014081;28;20050;-23
2024/01/22 11:13:51;;;;;;;4.03;1.70;;;;;;;;;;5014941;28;20022;-24
2024/01/22 11:16:18;;;;;;;3.53;1.50;;;;;;;;;;5014923;28;20080;-23
2024/01/22 11:19:01;;;;;;;2.58;1.65;;;;;;;;;;5014949;28;20093;-23
2024/01/22 11:21:34;;;;;;;6.25;1.52;;;;;;;;;;5014912;28;20040;-24
2024/01/22 11:24:06;;;;;;;4.53;1.50;;;;;;;;;;5014686;28;20036;-23
2024/01/22 11:26:33;;;;;;;7.40;2.20;;;;;;;;;;5015077;28;20532;-23
2024/01/22 11:29:06;;;;;;;6.93;2.10;;;;;;;;;;5014672;28;20091;-23
2024/01/22 11:31:35;;;;;;;2.30;1.73;;;;;;;;;;5014684;28;20105;-22
2024/01/22 11:34:01;;;;;;;10.48;2.58;;;;;;;;;;5014493;28;20032;-23
2024/01/22 11:36:48;;;;;;;10.13;1.92;;;;;;;;;;5014449;28;20093;-24
2024/01/22 11:39:32;;;;;;;12.60;1.95;;;;;;;;;;5007779;28;20037;-23
2024/01/22 11:41:59;;;;;;;4.47;1.90;;;;;;;;;;5014608;28;20108;-25
2024/01/22 11:44:27;;;;;;;4.90;1.75;;;;;;;;;;5014731;28;20033;-23
2024/01/22 11:47:04;;;;;;;12.52;1.95;;;;;;;;;;5014551;28;20464;-23
2024/01/22 11:49:30;;;;;;;9.95;2.30;;;;;;;;;;5014568;28;20038;-23
2024/01/22 11:51:56;;;;;;;10.95;2.25;;;;;;;;;;5014763;28;20424;-23
2024/01/22 11:54:24;;;;;;;9.60;2.25;;;;;;;;;;5014821;28;20026;-25
2024/01/22 11:56:51;;;;;;;6.53;1.55;;;;;;;;;;5014578;28;20588;-23
2024/01/22 11:59:17;;;;;;;10.65;2.45;;;;;;;;;;5015089;28;20037;-22
2024/01/22 12:01:44;;;;;;;6.30;2.00;;;;;;;;;;5014686;28;20030;-23
2024/01/22 12:04:10;;;;;;;11.60;1.63;;;;;;;;;;5014315;28;20078;-22
2024/01/22 12:06:50;;;;;;;13.77;2.33;;;;;;;;;;5014687;28;20030;-24
2024/01/22 12:09:16;;;;;;;3.83;1.30;;;;;;;;;;5014716;28;20018;-23
2024/01/22 12:11:50;;;;;;;9.48;2.03;;;;;;;;;;5014266;28;20045;-23
2024/01/22 12:14:16;;;;;;;8.25;1.88;;;;;;;;;;5014626;28;20029;-24
2024/01/22 12:16:43;;;;;;;5.30;1.80;;;;;;;;;;5014604;28;20349;-23
2024/01/22 12:19:12;;;;;;;6.53;1.45;;;;;;;;;;5014327;28;20037;-22
2024/01/22 12:21:39;;;;;;;4.28;1.73;;;;;;;;;;5014276;28;20503;-23
2024/01/22 12:24:14;;;;;;;8.07;2.20;;;;;;;;;;5014309;28;20433;-23
2024/01/22 12:26:40;;;;;;;8.48;2.75;;;;;;;;;;5014361;28;20105;-23
2024/01/22 12:29:20;;;;;;;7.68;2.17;;;;;;;;;;5014280;28;20441;-23
2024/01/22 12:31:46;;;;;;;5.00;2.03;;;;;;;;;;5014312;28;20022;-23
2024/01/22 12:34:12;;;;;;;4.72;1.80;;;;;;;;;;5014172;28;20022;-23
2024/01/22 12:36:38;;;;;;;13.55;2.35;;;;;;;;;;5013062;28;20029;-23
2024/01/22 12:39:07;;;;;;;15.80;2.17;;;;;;;;;;5014172;28;20029;-22
2024/01/22 12:41:33;;;;;;;6.53;2.22;;;;;;;;;;5013996;28;20038;-23
2024/01/22 12:43:59;;;;;;;3.92;1.88;;;;;;;;;;5013985;28;20029;-23
2024/01/22 12:46:26;;;;;;;6.40;1.95;;;;;;;;;;5014619;28;20049;-22
2024/01/22 12:48:55;;;;;;;2.75;1.65;;;;;;;;;;5016354;28;20380;-23
2024/01/22 12:51:28;;;;;;;5.25;1.92;;;;;;;;;;5017490;28;20036;-24
2024/01/22 12:53:54;;;;;;;5.18;1.98;;;;;;;;;;5017701;28;20391;-23
2024/01/22 12:56:20;;;;;;;7.28;1.95;;;;;;;;;;5017459;28;20025;-23
2024/01/22 12:58:46;;;;;;;6.43;2.28;;;;;;;;;;5017970;28;20018;-22
2024/01/22 13:01:13;;;;;;;8.63;2.28;;;;;;;;;;5017352;28;20021;-23
2024/01/22 13:03:40;;;;;;;13.73;1.58;;;;;;;;;;5017101;28;20472;-22
2024/01/22 13:06:06;;;;;;;7.32;2.22;;;;;;;;;;5017231;28;20037;-23
2024/01/22 13:08:32;;;;;;;4.82;1.77;;;;;;;;;;5017494;28;20068;-24
2024/01/22 13:10:59;;;;;;;10.30;1.88;;;;;;;;;;5017249;28;20046;-23
2024/01/22 13:13:25;;;;;;;8.18;1.60;;;;;;;;;;5016986;28;20461;-24
2024/01/22 13:15:52;;;;;;;5.18;2.20;;;;;;;;;;5017169;28;20045;-23
2024/01/22 13:18:18;;;;;;;9.88;2.40;;;;;;;;;;5017091;28;20026;-24
2024/01/22 13:20:47;;;;;;;10.63;2.80;;;;;;;;;;5017561;28;20060;-24
2024/01/22 13:23:14;;;;;;;8.93;4.00;;;;;;;;;;5016878;28;20105;-24
2024/01/22 13:25:40;;;;;;;6.63;2.33;;;;;;;;;;5017166;28;20030;-25
2024/01/22 13:28:06;;;;;;;7.57;2.95;;;;;;;;;;5016840;28;20030;-23
2024/01/22 13:30:32;;;;;;;9.90;2.08;;;;;;;;;;5017375;28;20026;-24
2024/01/22 13:33:01;;;;;;;7.70;2.10;;;;;;;;;;5016753;28;20397;-23
2024/01/22 13:35:27;;;;;;;5.18;2.50;;;;;;;;;;5016897;28;20048;-24
2024/01/22 13:37:56;;;;;;;13.15;2.72;;;;;;;;;;5016798;28;20024;-23
2024/01/22 13:40:22;;;;;;;10.38;3.15;;;;;;;;;;5016669;28;20053;-24
2024/01/22 13:42:48;;;;;;;11.57;4.00;;;;;;;;;;5016546;28;20101;-24
2024/01/22 13:45:15;;;;;;;11.75;2.55;;;;;;;;;;5016785;28;20030;-24
2024/01/22 13:47:41;;;;;;;9.85;2.70;;;;;;;;;;5016716;28;20059;-24
2024/01/22 13:50:09;;;;;;;7.15;2.38;;;;;;;;;;5016416;28;20037;-23
2024/01/22 13:52:35;;;;;;;7.50;2.92;;;;;;;;;;5016308;28;20029;-25
2024/01/22 13:55:04;;;;;;;13.38;2.67;;;;;;;;;;5016599;28;20116;-23
2024/01/22 13:57:30;;;;;;;7.55;2.10;;;;;;;;;;5016197;28;20037;-23
2024/01/22 13:59:57;;;;;;;6.90;3.30;;;;;;;;;;5015722;28;20026;-24
2024/01/22 14:02:23;;;;;;;13.00;2.35;;;;;;;;;;5016020;28;20026;-23
2024/01/22 14:04:49;;;;;;;13.52;2.80;;;;;;;;;;5016412;28;20037;-23
2024/01/22 14:07:15;;;;;;;8.63;2.25;;;;;;;;;;5014996;28;20037;-23
2024/01/22 14:09:42;;;;;;;10.73;2.20;;;;;;;;;;5015933;28;20038;-23
2024/01/22 14:12:08;;;;;;;11.00;2.83;;;;;;;;;;5015805;28;20042;-22
2024/01/22 14:14:34;;;;;;;3.72;2.05;;;;;;;;;;5016141;28;20390;-22
2024/01/22 14:17:02;;;;;;;6.35;2.25;;;;;;;;;;5015742;28;20453;-29
2024/01/22 14:19:30;;;;;;;6.68;2.47;;;;;;;;;;5015804;28;20025;-22
2024/01/22 14:21:56;;;;;;;9.25;3.33;;;;;;;;;;5014740;28;20097;-23
2024/01/22 14:24:23;;;;;;;4.78;2.10;;;;;;;;;;5016143;28;20037;-23
2024/01/22 14:26:49;;;;;;;6.82;1.90;;;;;;;;;;5015941;28;20129;-23
2024/01/22 14:29:15;;;;;;;7.93;2.22;;;;;;;;;;5015593;28;20479;-21
2024/01/22 14:31:41;;;;;;;6.30;2.88;;;;;;;;;;5015299;28;20044;-25
2024/01/22 14:34:07;;;;;;;6.20;2.05;;;;;;;;;;5015664;28;20028;-23
2024/01/22 14:36:33;;;;;;;4.95;1.85;;;;;;;;;;5015815;28;20095;-23
2024/01/22 14:39:00;;;;;;;6.85;2.25;;;;;;;;;;5015447;28;20037;-23
2024/01/22 14:41:26;;;;;;;4.15;2.45;;;;;;;;;;5015528;28;20018;-23